createdAt,value
2022-08-02T00:00:01.824Z,45
2022-08-02T00:00:21.876Z,45
2022-08-02T00:00:42.011Z,45
2022-08-02T00:01:02.000Z,90
2022-08-02T00:01:22.179Z,135
2022-08-02T00:01:42.276Z,180
2022-08-02T00:02:02.265Z,180
2022-08-02T00:02:22.279Z,180
2022-08-02T00:02:42.370Z,180
2022-08-02T00:03:02.455Z,180
2022-08-02T00:03:23.401Z,180
2022-08-02T00:03:42.569Z,180
2022-08-02T00:04:02.632Z,112.5
2022-08-02T00:04:22.699Z,90
2022-08-02T00:04:42.783Z,90
2022-08-02T00:05:02.841Z,90
2022-08-02T00:05:22.896Z,90
2022-08-02T00:05:43.048Z,90
2022-08-02T00:06:03.040Z,90
2022-08-02T00:06:23.148Z,90
2022-08-02T00:06:43.217Z,90
2022-08-02T00:07:03.296Z,90
2022-08-02T00:07:23.360Z,90
2022-08-02T00:07:43.443Z,112.5
2022-08-02T00:08:03.536Z,112.5
2022-08-02T00:08:23.601Z,112.5
2022-08-02T00:08:43.679Z,90
2022-08-02T00:09:03.751Z,90
2022-08-02T00:09:23.833Z,90
2022-08-02T00:09:43.917Z,90
2022-08-02T00:10:03.979Z,90
2022-08-02T00:10:24.030Z,90
2022-08-02T00:10:44.180Z,90
2022-08-02T00:11:04.198Z,90
2022-08-02T00:11:24.265Z,90
2022-08-02T00:11:44.327Z,90
2022-08-02T00:12:04.422Z,90
2022-08-02T00:12:24.488Z,90
2022-08-02T00:12:44.581Z,90
2022-08-02T00:13:04.666Z,90
2022-08-02T00:13:24.773Z,90
2022-08-02T00:13:44.854Z,90
2022-08-02T00:14:04.916Z,90
2022-08-02T00:14:24.956Z,90
2022-08-02T00:14:45.014Z,90
2022-08-02T00:15:05.147Z,90
2022-08-02T00:15:25.227Z,90
2022-08-02T00:15:45.369Z,90
2022-08-02T00:16:05.370Z,90
2022-08-02T00:16:38.255Z,90
2022-08-02T00:16:45.526Z,90
2022-08-02T00:17:05.606Z,90
2022-08-02T00:17:25.671Z,90
2022-08-02T00:17:47.268Z,90
2022-08-02T00:18:05.807Z,90
2022-08-02T00:18:25.898Z,90
2022-08-02T00:18:45.982Z,90
2022-08-02T00:19:06.041Z,90
2022-08-02T00:19:26.111Z,90
2022-08-02T00:19:46.181Z,67.5
2022-08-02T00:20:06.267Z,45
2022-08-02T00:20:26.341Z,45
2022-08-02T00:20:46.472Z,45
2022-08-02T00:21:06.500Z,45
2022-08-02T00:21:26.568Z,45
2022-08-02T00:21:46.635Z,45
2022-08-02T00:22:06.719Z,45
2022-08-02T00:22:26.811Z,45
2022-08-02T00:22:46.900Z,45
2022-08-02T00:23:06.955Z,45
2022-08-02T00:23:27.030Z,67.5
2022-08-02T00:24:27.903Z,67.5
2022-08-02T00:24:28.845Z,67.5
2022-08-02T00:24:29.572Z,67.5
2022-08-02T00:24:47.302Z,67.5
2022-08-02T00:25:07.350Z,67.5
2022-08-02T00:25:27.461Z,45
2022-08-02T00:25:54.953Z,45
2022-08-02T00:26:07.631Z,45
2022-08-02T00:26:27.677Z,45
2022-08-02T00:26:47.753Z,45
2022-08-02T00:27:09.365Z,45
2022-08-02T00:27:27.904Z,45
2022-08-02T00:27:48.021Z,45
2022-08-02T00:28:08.090Z,45
2022-08-02T00:28:28.466Z,45
2022-08-02T00:28:48.243Z,67.5
2022-08-02T00:29:08.306Z,67.5
2022-08-02T00:29:28.393Z,67.5
2022-08-02T00:29:52.498Z,67.5
2022-08-02T00:30:08.514Z,67.5
2022-08-02T00:30:28.589Z,67.5
2022-08-02T00:30:48.745Z,67.5
2022-08-02T00:31:08.751Z,67.5
2022-08-02T00:31:28.811Z,67.5
2022-08-02T00:31:48.896Z,45
2022-08-02T00:32:09.282Z,45
2022-08-02T00:32:29.037Z,45
2022-08-02T00:32:49.092Z,45
2022-08-02T00:33:09.159Z,45
2022-08-02T00:34:26.283Z,45
2022-08-02T00:34:28.313Z,45
2022-08-02T00:34:29.206Z,45
2022-08-02T00:34:32.889Z,45
2022-08-02T00:34:49.545Z,45
2022-08-02T00:35:09.646Z,45
2022-08-02T00:35:29.717Z,45
2022-08-02T00:35:49.862Z,45
2022-08-02T00:36:09.862Z,90
2022-08-02T00:36:29.951Z,202.5
2022-08-02T00:36:50.021Z,270
2022-08-02T00:37:10.116Z,292.5
2022-08-02T00:37:30.176Z,270
2022-08-02T00:37:50.280Z,292.5
2022-08-02T00:38:10.366Z,315
2022-08-02T00:38:30.407Z,315
2022-08-02T00:38:50.510Z,292.5
2022-08-02T00:39:33.504Z,247.5
2022-08-02T00:39:35.062Z,180
2022-08-02T00:39:50.681Z,157.5
2022-08-02T00:40:10.796Z,90
2022-08-02T00:40:30.842Z,45
2022-08-02T00:40:54.224Z,22.5
2022-08-02T00:41:10.977Z,22.5
2022-08-02T00:41:31.037Z,22.5
2022-08-02T00:41:51.100Z,22.5
2022-08-02T00:42:11.581Z,22.5
2022-08-02T00:42:31.207Z,45
2022-08-02T00:42:51.273Z,90
2022-08-02T00:43:11.341Z,90
2022-08-02T00:43:31.385Z,90
2022-08-02T00:43:51.495Z,90
2022-08-02T00:44:11.507Z,67.5
2022-08-02T00:44:31.571Z,45
2022-08-02T00:44:51.703Z,45
2022-08-02T00:45:11.681Z,22.5
2022-08-02T00:46:02.119Z,22.5
2022-08-02T00:46:02.570Z,22.5
2022-08-02T00:46:11.867Z,22.5
2022-08-02T00:46:31.929Z,22.5
2022-08-02T00:46:51.993Z,22.5
2022-08-02T00:47:13.775Z,22.5
2022-08-02T00:47:32.118Z,22.5
2022-08-02T00:47:52.173Z,22.5
2022-08-02T00:48:12.226Z,45
2022-08-02T00:48:32.280Z,67.5
2022-08-02T00:48:52.452Z,45
2022-08-02T00:49:12.483Z,45
2022-08-02T00:49:33.060Z,45
2022-08-02T00:49:52.550Z,22.5
2022-08-02T00:50:12.581Z,22.5
2022-08-02T00:50:32.638Z,67.5
2022-08-02T00:50:52.759Z,157.5
2022-08-02T00:51:12.772Z,135
2022-08-02T00:51:32.831Z,157.5
2022-08-02T00:51:52.984Z,135
2022-08-02T00:52:13.303Z,67.5
2022-08-02T00:52:33.011Z,22.5
2022-08-02T00:52:53.061Z,22.5
2022-08-02T00:53:13.116Z,22.5
2022-08-02T00:53:33.163Z,22.5
2022-08-02T00:53:53.235Z,22.5
2022-08-02T00:54:13.289Z,22.5
2022-08-02T00:54:33.362Z,22.5
2022-08-02T00:54:53.436Z,22.5
2022-08-02T00:55:13.500Z,22.5
2022-08-02T00:55:33.547Z,22.5
2022-08-02T00:55:53.672Z,22.5
2022-08-02T00:56:13.669Z,22.5
2022-08-02T00:56:33.717Z,22.5
2022-08-02T00:56:53.771Z,22.5
2022-08-02T00:57:13.839Z,22.5
2022-08-02T00:57:33.883Z,22.5
2022-08-02T00:57:53.966Z,22.5
2022-08-02T00:58:14.033Z,22.5
2022-08-02T00:58:34.070Z,22.5
2022-08-02T00:58:54.149Z,45
2022-08-02T00:59:14.494Z,45
2022-08-02T00:59:34.252Z,45
2022-08-02T00:59:54.334Z,45
2022-08-02T01:00:14.378Z,45
2022-08-02T01:00:34.417Z,45
2022-08-02T01:00:54.581Z,45
2022-08-02T01:01:14.565Z,45
2022-08-02T01:01:34.678Z,45
2022-08-02T01:01:57.305Z,45
2022-08-02T01:02:15.286Z,45
2022-08-02T01:02:34.820Z,45
2022-08-02T01:02:54.891Z,45
2022-08-02T01:03:14.944Z,45
2022-08-02T01:03:35.004Z,45
2022-08-02T01:03:55.063Z,45
2022-08-02T01:04:15.133Z,45
2022-08-02T01:04:35.178Z,67.5
2022-08-02T01:04:55.234Z,67.5
2022-08-02T01:05:15.323Z,67.5
2022-08-02T01:05:55.816Z,90
2022-08-02T01:06:10.333Z,90
2022-08-02T01:06:15.464Z,90
2022-08-02T01:06:35.550Z,90
2022-08-02T01:06:55.597Z,90
2022-08-02T01:07:15.668Z,90
2022-08-02T01:07:35.718Z,90
2022-08-02T01:07:55.778Z,90
2022-08-02T01:08:15.847Z,90
2022-08-02T01:08:35.891Z,112.5
2022-08-02T01:08:55.964Z,135
2022-08-02T01:09:16.031Z,112.5
2022-08-02T01:09:36.116Z,112.5
2022-08-02T01:09:56.161Z,112.5
2022-08-02T01:10:16.246Z,112.5
2022-08-02T01:10:36.346Z,112.5
2022-08-02T01:10:56.474Z,112.5
2022-08-02T01:11:16.445Z,135
2022-08-02T01:11:36.466Z,135
2022-08-02T01:11:56.552Z,135
2022-08-02T01:12:17.142Z,112.5
2022-08-02T01:12:36.682Z,112.5
2022-08-02T01:12:56.757Z,112.5
2022-08-02T01:13:16.841Z,90
2022-08-02T01:13:36.883Z,90
2022-08-02T01:13:56.948Z,90
2022-08-02T01:14:16.998Z,90
2022-08-02T01:14:37.059Z,90
2022-08-02T01:14:57.132Z,67.5
2022-08-02T01:15:17.200Z,67.5
2022-08-02T01:15:37.262Z,67.5
2022-08-02T01:15:57.388Z,67.5
2022-08-02T01:16:17.360Z,67.5
2022-08-02T01:16:37.434Z,67.5
2022-08-02T01:16:57.493Z,67.5
2022-08-02T01:17:17.551Z,67.5
2022-08-02T01:17:37.620Z,45
2022-08-02T01:17:57.687Z,67.5
2022-08-02T01:18:17.752Z,67.5
2022-08-02T01:18:37.948Z,67.5
2022-08-02T01:18:57.866Z,67.5
2022-08-02T01:19:17.934Z,90
2022-08-02T01:19:38.001Z,90
2022-08-02T01:19:58.063Z,90
2022-08-02T01:20:18.138Z,67.5
2022-08-02T01:20:38.193Z,45
2022-08-02T01:20:58.343Z,45
2022-08-02T01:21:18.319Z,45
2022-08-02T01:21:38.393Z,45
2022-08-02T01:21:58.442Z,67.5
2022-08-02T01:22:18.507Z,90
2022-08-02T01:23:00.732Z,90
2022-08-02T01:23:01.522Z,90
2022-08-02T01:23:18.690Z,112.5
2022-08-02T01:23:38.744Z,112.5
2022-08-02T01:23:58.795Z,112.5
2022-08-02T01:24:18.852Z,112.5
2022-08-02T01:24:38.914Z,112.5
2022-08-02T01:24:58.967Z,112.5
2022-08-02T01:25:19.038Z,112.5
2022-08-02T01:25:39.082Z,112.5
2022-08-02T01:25:59.236Z,112.5
2022-08-02T01:26:19.241Z,112.5
2022-08-02T01:26:39.294Z,112.5
2022-08-02T01:26:59.350Z,112.5
2022-08-02T01:27:19.415Z,112.5
2022-08-02T01:27:39.476Z,112.5
2022-08-02T01:27:59.536Z,112.5
2022-08-02T01:28:19.585Z,112.5
2022-08-02T01:28:39.644Z,112.5
2022-08-02T01:28:59.699Z,135
2022-08-02T01:29:19.774Z,112.5
2022-08-02T01:29:39.873Z,112.5
2022-08-02T01:29:59.896Z,112.5
2022-08-02T01:30:19.940Z,112.5
2022-08-02T01:30:39.999Z,112.5
2022-08-02T01:31:00.139Z,112.5
2022-08-02T01:31:20.125Z,112.5
2022-08-02T01:31:40.172Z,112.5
2022-08-02T01:32:00.239Z,135
2022-08-02T01:32:20.300Z,112.5
2022-08-02T01:32:40.329Z,112.5
2022-08-02T01:33:00.425Z,112.5
2022-08-02T01:33:20.473Z,112.5
2022-08-02T01:33:40.567Z,112.5
2022-08-02T01:34:00.587Z,135
2022-08-02T01:34:20.656Z,157.5
2022-08-02T01:34:40.711Z,112.5
2022-08-02T01:35:00.780Z,90
2022-08-02T01:35:20.852Z,112.5
2022-08-02T01:35:50.763Z,112.5
2022-08-02T01:36:01.033Z,90
2022-08-02T01:36:21.009Z,90
2022-08-02T01:36:41.071Z,112.5
2022-08-02T01:37:01.134Z,112.5
2022-08-02T01:37:21.191Z,112.5
2022-08-02T01:37:41.244Z,112.5
2022-08-02T01:38:01.315Z,112.5
2022-08-02T01:38:21.362Z,90
2022-08-02T01:38:41.421Z,90
2022-08-02T01:39:01.476Z,112.5
2022-08-02T01:39:26.958Z,90
2022-08-02T01:39:41.590Z,90
2022-08-02T01:40:01.654Z,90
2022-08-02T01:40:21.716Z,112.5
2022-08-02T01:40:41.765Z,112.5
2022-08-02T01:41:01.899Z,90
2022-08-02T01:41:21.891Z,112.5
2022-08-02T01:41:41.984Z,112.5
2022-08-02T01:42:02.009Z,135
2022-08-02T01:42:22.071Z,135
2022-08-02T01:42:42.127Z,135
2022-08-02T01:43:02.185Z,112.5
2022-08-02T01:43:22.247Z,112.5
2022-08-02T01:43:42.317Z,90
2022-08-02T01:44:02.360Z,90
2022-08-02T01:44:27.231Z,90
2022-08-02T01:44:42.471Z,90
2022-08-02T01:45:02.548Z,90
2022-08-02T01:45:22.604Z,112.5
2022-08-02T01:45:42.674Z,112.5
2022-08-02T01:46:02.787Z,112.5
2022-08-02T01:46:22.793Z,112.5
2022-08-02T01:46:42.841Z,90
2022-08-02T01:47:02.922Z,90
2022-08-02T01:47:22.990Z,90
2022-08-02T01:47:43.039Z,90
2022-08-02T01:48:03.113Z,90
2022-08-02T01:48:23.161Z,90
2022-08-02T01:48:43.214Z,90
2022-08-02T01:49:03.389Z,90
2022-08-02T01:49:23.417Z,90
2022-08-02T01:49:43.510Z,112.5
2022-08-02T01:50:03.483Z,112.5
2022-08-02T01:50:23.552Z,112.5
2022-08-02T01:50:43.598Z,90
2022-08-02T01:51:03.722Z,90
2022-08-02T01:51:23.726Z,90
2022-08-02T01:51:43.773Z,90
2022-08-02T01:52:03.827Z,90
2022-08-02T01:52:23.877Z,112.5
2022-08-02T01:52:53.126Z,112.5
2022-08-02T01:53:04.013Z,112.5
2022-08-02T01:53:24.073Z,90
2022-08-02T01:53:44.126Z,112.5
2022-08-02T01:54:04.192Z,135
2022-08-02T01:54:24.257Z,135
2022-08-02T01:54:44.312Z,135
2022-08-02T01:55:04.363Z,112.5
2022-08-02T01:55:34.935Z,112.5
2022-08-02T01:55:58.577Z,112.5
2022-08-02T01:56:04.627Z,112.5
2022-08-02T01:56:24.619Z,112.5
2022-08-02T01:56:44.675Z,112.5
2022-08-02T01:57:04.757Z,112.5
2022-08-02T01:57:24.820Z,90
2022-08-02T01:57:44.897Z,90
2022-08-02T01:58:04.956Z,90
2022-08-02T01:58:25.018Z,90
2022-08-02T01:58:45.074Z,67.5
2022-08-02T01:59:05.140Z,67.5
2022-08-02T01:59:25.190Z,67.5
2022-08-02T01:59:45.263Z,67.5
2022-08-02T02:00:05.305Z,45
2022-08-02T02:00:25.356Z,45
2022-08-02T02:00:45.432Z,135
2022-08-02T02:01:05.695Z,135
2022-08-02T02:01:25.639Z,112.5
2022-08-02T02:01:45.724Z,112.5
2022-08-02T02:02:05.683Z,112.5
2022-08-02T02:02:30.043Z,112.5
2022-08-02T02:02:45.812Z,112.5
2022-08-02T02:03:05.825Z,112.5
2022-08-02T02:03:25.911Z,90
2022-08-02T02:03:45.987Z,112.5
2022-08-02T02:04:06.029Z,135
2022-08-02T02:04:26.079Z,112.5
2022-08-02T02:04:46.148Z,112.5
2022-08-02T02:05:06.215Z,112.5
2022-08-02T02:05:26.268Z,112.5
2022-08-02T02:05:46.335Z,112.5
2022-08-02T02:06:06.459Z,112.5
2022-08-02T02:06:26.449Z,112.5
2022-08-02T02:06:46.495Z,112.5
2022-08-02T02:07:06.567Z,112.5
2022-08-02T02:07:26.599Z,112.5
2022-08-02T02:07:46.674Z,90
2022-08-02T02:08:06.755Z,67.5
2022-08-02T02:08:27.744Z,90
2022-08-02T02:08:46.856Z,135
2022-08-02T02:09:06.913Z,157.5
2022-08-02T02:09:26.967Z,157.5
2022-08-02T02:09:49.149Z,180
2022-08-02T02:10:07.121Z,180
2022-08-02T02:10:27.148Z,180
2022-08-02T02:10:47.217Z,180
2022-08-02T02:12:06.174Z,180
2022-08-02T02:12:06.332Z,180
2022-08-02T02:12:09.350Z,180
2022-08-02T02:12:14.054Z,180
2022-08-02T02:12:27.540Z,180
2022-08-02T02:12:47.643Z,180
2022-08-02T02:13:07.719Z,157.5
2022-08-02T02:13:33.301Z,180
2022-08-02T02:13:47.866Z,157.5
2022-08-02T02:14:07.946Z,180
2022-08-02T02:14:28.029Z,180
2022-08-02T02:14:49.297Z,157.5
2022-08-02T02:15:08.172Z,112.5
2022-08-02T02:15:28.246Z,90
2022-08-02T02:15:48.332Z,90
2022-08-02T02:16:08.500Z,112.5
2022-08-02T02:16:28.506Z,112.5
2022-08-02T02:16:48.577Z,112.5
2022-08-02T02:17:08.641Z,112.5
2022-08-02T02:17:52.629Z,112.5
2022-08-02T02:18:10.779Z,112.5
2022-08-02T02:18:12.400Z,135
2022-08-02T02:18:28.977Z,112.5
2022-08-02T02:18:49.061Z,90
2022-08-02T02:19:09.128Z,112.5
2022-08-02T02:19:29.217Z,112.5
2022-08-02T02:19:49.303Z,112.5
2022-08-02T02:20:09.382Z,90
2022-08-02T02:20:29.454Z,90
2022-08-02T02:20:49.509Z,112.5
2022-08-02T02:21:09.646Z,112.5
2022-08-02T02:21:29.630Z,112.5
2022-08-02T02:21:49.698Z,112.5
2022-08-02T02:22:10.075Z,135
2022-08-02T02:22:29.881Z,112.5
2022-08-02T02:22:49.966Z,112.5
2022-08-02T02:23:09.984Z,112.5
2022-08-02T02:23:30.170Z,90
2022-08-02T02:23:50.907Z,90
2022-08-02T02:24:11.641Z,135
2022-08-02T02:24:30.250Z,157.5
2022-08-02T02:24:50.346Z,180
2022-08-02T02:25:11.462Z,180
2022-08-02T02:25:36.315Z,157.5
2022-08-02T02:25:50.586Z,180
2022-08-02T02:26:10.738Z,180
2022-08-02T02:26:31.618Z,180
2022-08-02T02:26:52.440Z,157.5
2022-08-02T02:27:10.881Z,157.5
2022-08-02T02:27:30.967Z,157.5
2022-08-02T02:27:50.977Z,157.5
2022-08-02T02:28:11.050Z,157.5
2022-08-02T02:28:31.111Z,180
2022-08-02T02:28:51.188Z,180
2022-08-02T02:29:11.248Z,180
2022-08-02T02:29:31.326Z,180
2022-08-02T02:29:51.435Z,157.5
2022-08-02T02:30:11.490Z,135
2022-08-02T02:30:31.575Z,112.5
2022-08-02T02:30:51.654Z,112.5
2022-08-02T02:31:11.802Z,112.5
2022-08-02T02:31:31.826Z,135
2022-08-02T02:31:51.915Z,157.5
2022-08-02T02:32:12.402Z,180
2022-08-02T02:32:32.061Z,180
2022-08-02T02:32:52.139Z,135
2022-08-02T02:33:12.228Z,135
2022-08-02T02:33:32.281Z,157.5
2022-08-02T02:33:52.362Z,180
2022-08-02T02:34:12.417Z,180
2022-08-02T02:34:32.483Z,180
2022-08-02T02:34:52.577Z,180
2022-08-02T02:35:12.665Z,135
2022-08-02T02:35:32.725Z,112.5
2022-08-02T02:35:52.803Z,90
2022-08-02T02:36:12.924Z,67.5
2022-08-02T02:36:32.913Z,45
2022-08-02T02:36:53.016Z,22.5
2022-08-02T02:37:13.086Z,45
2022-08-02T02:37:33.157Z,67.5
2022-08-02T02:37:53.205Z,90
2022-08-02T02:38:13.305Z,112.5
2022-08-02T02:38:33.425Z,112.5
2022-08-02T02:38:53.475Z,135
2022-08-02T02:39:13.957Z,157.5
2022-08-02T02:39:33.625Z,157.5
2022-08-02T02:39:53.738Z,112.5
2022-08-02T02:40:13.783Z,112.5
2022-08-02T02:40:33.878Z,112.5
2022-08-02T02:40:53.942Z,112.5
2022-08-02T02:41:14.090Z,135
2022-08-02T02:41:34.089Z,135
2022-08-02T02:41:54.138Z,135
2022-08-02T02:42:14.446Z,157.5
2022-08-02T02:42:34.333Z,135
2022-08-02T02:42:54.406Z,157.5
2022-08-02T02:43:14.503Z,135
2022-08-02T02:43:34.567Z,112.5
2022-08-02T02:43:54.661Z,112.5
2022-08-02T02:44:14.741Z,112.5
2022-08-02T02:44:34.784Z,112.5
2022-08-02T02:44:54.855Z,112.5
2022-08-02T02:45:14.942Z,112.5
2022-08-02T02:45:35.005Z,112.5
2022-08-02T02:45:55.089Z,112.5
2022-08-02T02:46:15.224Z,112.5
2022-08-02T02:46:35.252Z,112.5
2022-08-02T02:46:55.318Z,112.5
2022-08-02T02:47:15.433Z,135
2022-08-02T02:47:40.861Z,135
2022-08-02T02:47:55.607Z,112.5
2022-08-02T02:48:15.682Z,112.5
2022-08-02T02:48:35.767Z,112.5
2022-08-02T02:48:55.911Z,90
2022-08-02T02:49:15.974Z,112.5
2022-08-02T02:49:36.057Z,157.5
2022-08-02T02:49:56.038Z,180
2022-08-02T02:50:16.113Z,180
2022-08-02T02:50:36.203Z,180
2022-08-02T02:50:56.253Z,157.5
2022-08-02T02:51:16.420Z,157.5
2022-08-02T02:51:36.443Z,157.5
2022-08-02T02:51:56.558Z,157.5
2022-08-02T02:52:16.649Z,180
2022-08-02T02:52:36.710Z,157.5
2022-08-02T02:52:56.790Z,135
2022-08-02T02:53:16.862Z,112.5
2022-08-02T02:54:31.167Z,135
2022-08-02T02:54:31.186Z,112.5
2022-08-02T02:54:31.993Z,112.5
2022-08-02T02:54:37.197Z,135
2022-08-02T02:54:57.284Z,135
2022-08-02T02:55:17.385Z,112.5
2022-08-02T02:55:37.455Z,112.5
2022-08-02T02:56:02.361Z,112.5
2022-08-02T02:56:17.709Z,112.5
2022-08-02T02:56:37.717Z,112.5
2022-08-02T02:56:57.766Z,112.5
2022-08-02T02:57:17.850Z,90
2022-08-02T02:57:37.933Z,112.5
2022-08-02T02:57:57.984Z,90
2022-08-02T02:58:18.068Z,112.5
2022-08-02T02:58:38.159Z,112.5
2022-08-02T02:58:58.223Z,112.5
2022-08-02T02:59:18.319Z,112.5
2022-08-02T02:59:49.019Z,112.5
2022-08-02T02:59:58.497Z,112.5
2022-08-02T03:00:18.554Z,112.5
2022-08-02T03:00:38.676Z,135
2022-08-02T03:00:58.762Z,135
2022-08-02T03:01:18.940Z,135
2022-08-02T03:01:57.031Z,135
2022-08-02T03:01:59.111Z,112.5
2022-08-02T03:02:18.950Z,112.5
2022-08-02T03:02:39.020Z,112.5
2022-08-02T03:02:59.106Z,135
2022-08-02T03:03:19.746Z,135
2022-08-02T03:03:39.265Z,135
2022-08-02T03:03:59.323Z,135
2022-08-02T03:04:19.381Z,157.5
2022-08-02T03:04:57.339Z,180
2022-08-02T03:04:59.520Z,157.5
2022-08-02T03:05:19.592Z,135
2022-08-02T03:05:39.650Z,112.5
2022-08-02T03:05:59.729Z,112.5
2022-08-02T03:06:19.886Z,112.5
2022-08-02T03:06:39.871Z,135
2022-08-02T03:06:59.957Z,135
2022-08-02T03:07:20.003Z,135
2022-08-02T03:07:40.059Z,112.5
2022-08-02T03:08:00.134Z,112.5
2022-08-02T03:08:20.190Z,112.5
2022-08-02T03:08:40.277Z,112.5
2022-08-02T03:09:00.350Z,112.5
2022-08-02T03:09:20.418Z,112.5
2022-08-02T03:09:40.475Z,112.5
2022-08-02T03:10:00.589Z,112.5
2022-08-02T03:10:20.658Z,112.5
2022-08-02T03:10:40.723Z,112.5
2022-08-02T03:11:00.787Z,112.5
2022-08-02T03:11:20.911Z,112.5
2022-08-02T03:11:40.897Z,112.5
2022-08-02T03:12:00.976Z,112.5
2022-08-02T03:12:21.054Z,135
2022-08-02T03:12:41.147Z,157.5
2022-08-02T03:13:01.229Z,157.5
2022-08-02T03:13:21.273Z,135
2022-08-02T03:13:41.352Z,112.5
2022-08-02T03:14:01.412Z,112.5
2022-08-02T03:14:21.469Z,112.5
2022-08-02T03:14:41.519Z,112.5
2022-08-02T03:15:01.611Z,112.5
2022-08-02T03:15:21.689Z,112.5
2022-08-02T03:15:41.755Z,112.5
2022-08-02T03:16:01.818Z,90
2022-08-02T03:16:21.938Z,112.5
2022-08-02T03:16:41.933Z,112.5
2022-08-02T03:17:02.018Z,135
2022-08-02T03:17:22.097Z,135
2022-08-02T03:17:42.180Z,135
2022-08-02T03:18:02.261Z,157.5
2022-08-02T03:18:22.319Z,180
2022-08-02T03:18:42.407Z,157.5
2022-08-02T03:19:02.489Z,135
2022-08-02T03:19:22.594Z,135
2022-08-02T03:19:42.669Z,135
2022-08-02T03:20:02.755Z,157.5
2022-08-02T03:20:22.846Z,157.5
2022-08-02T03:20:42.909Z,180
2022-08-02T03:21:02.972Z,180
2022-08-02T03:21:23.083Z,157.5
2022-08-02T03:21:43.088Z,157.5
2022-08-02T03:22:03.180Z,157.5
2022-08-02T03:22:23.251Z,135
2022-08-02T03:22:43.343Z,112.5
2022-08-02T03:23:03.406Z,90
2022-08-02T03:23:23.465Z,90
2022-08-02T03:23:43.530Z,90
2022-08-02T03:24:03.609Z,135
2022-08-02T03:24:28.148Z,157.5
2022-08-02T03:24:43.703Z,157.5
2022-08-02T03:25:03.778Z,157.5
2022-08-02T03:25:23.813Z,180
2022-08-02T03:25:43.883Z,157.5
2022-08-02T03:26:03.938Z,157.5
2022-08-02T03:26:24.124Z,180
2022-08-02T03:26:44.110Z,180
2022-08-02T03:27:04.193Z,180
2022-08-02T03:27:24.251Z,157.5
2022-08-02T03:27:44.349Z,112.5
2022-08-02T03:28:04.439Z,135
2022-08-02T03:28:24.503Z,135
2022-08-02T03:28:44.600Z,112.5
2022-08-02T03:29:09.723Z,90
2022-08-02T03:29:24.726Z,90
2022-08-02T03:29:44.797Z,135
2022-08-02T03:30:04.883Z,157.5
2022-08-02T03:30:24.945Z,135
2022-08-02T03:30:45.006Z,112.5
2022-08-02T03:31:05.042Z,112.5
2022-08-02T03:31:25.175Z,112.5
2022-08-02T03:31:45.199Z,112.5
2022-08-02T03:32:05.271Z,112.5
2022-08-02T03:32:25.323Z,90
2022-08-02T03:32:45.377Z,67.5
2022-08-02T03:33:05.455Z,90
2022-08-02T03:33:25.490Z,112.5
2022-08-02T03:33:45.570Z,135
2022-08-02T03:34:05.621Z,135
2022-08-02T03:34:25.718Z,112.5
2022-08-02T03:34:45.773Z,112.5
2022-08-02T03:35:05.814Z,112.5
2022-08-02T03:35:25.898Z,135
2022-08-02T03:35:45.980Z,157.5
2022-08-02T03:36:06.064Z,180
2022-08-02T03:36:26.186Z,180
2022-08-02T03:36:46.191Z,135
2022-08-02T03:37:06.265Z,112.5
2022-08-02T03:37:26.324Z,135
2022-08-02T03:37:46.383Z,112.5
2022-08-02T03:38:06.452Z,112.5
2022-08-02T03:38:28.923Z,157.5
2022-08-02T03:38:46.612Z,180
2022-08-02T03:39:06.675Z,180
2022-08-02T03:39:26.756Z,135
2022-08-02T03:39:52.729Z,135
2022-08-02T03:40:06.875Z,135
2022-08-02T03:40:26.985Z,112.5
2022-08-02T03:40:47.009Z,112.5
2022-08-02T03:41:07.087Z,135
2022-08-02T03:41:27.247Z,157.5
2022-08-02T03:41:47.232Z,135
2022-08-02T03:42:07.311Z,135
2022-08-02T03:42:27.371Z,157.5
2022-08-02T03:42:47.443Z,157.5
2022-08-02T03:43:07.506Z,135
2022-08-02T03:43:28.821Z,112.5
2022-08-02T03:43:47.653Z,135
2022-08-02T03:44:07.734Z,157.5
2022-08-02T03:44:27.838Z,135
2022-08-02T03:44:47.879Z,135
2022-08-02T03:45:08.940Z,135
2022-08-02T03:45:28.044Z,157.5
2022-08-02T03:45:48.125Z,135
2022-08-02T03:46:08.188Z,135
2022-08-02T03:46:28.323Z,112.5
2022-08-02T03:46:48.314Z,112.5
2022-08-02T03:47:08.383Z,112.5
2022-08-02T03:47:28.468Z,112.5
2022-08-02T03:47:48.521Z,112.5
2022-08-02T03:48:30.550Z,112.5
2022-08-02T03:48:34.140Z,112.5
2022-08-02T03:48:48.778Z,90
2022-08-02T03:49:08.917Z,135
2022-08-02T03:49:29.022Z,157.5
2022-08-02T03:49:49.025Z,180
2022-08-02T03:50:09.141Z,157.5
2022-08-02T03:50:29.202Z,112.5
2022-08-02T03:50:49.283Z,112.5
2022-08-02T03:51:09.338Z,112.5
2022-08-02T03:51:29.523Z,135
2022-08-02T03:51:49.501Z,157.5
2022-08-02T03:52:09.862Z,157.5
2022-08-02T03:52:29.640Z,135
2022-08-02T03:52:49.730Z,135
2022-08-02T03:53:09.816Z,135
2022-08-02T03:53:29.871Z,135
2022-08-02T03:53:49.943Z,135
2022-08-02T03:54:10.018Z,157.5
2022-08-02T03:54:33.092Z,180
2022-08-02T03:54:50.140Z,180
2022-08-02T03:55:10.215Z,157.5
2022-08-02T03:55:30.296Z,157.5
2022-08-02T03:55:50.352Z,157.5
2022-08-02T03:56:10.418Z,180
2022-08-02T03:56:30.552Z,157.5
2022-08-02T03:56:50.543Z,157.5
2022-08-02T03:57:10.601Z,180
2022-08-02T03:57:30.655Z,157.5
2022-08-02T03:57:50.705Z,135
2022-08-02T03:58:10.771Z,112.5
2022-08-02T03:58:30.839Z,135
2022-08-02T03:58:50.917Z,135
2022-08-02T03:59:10.990Z,112.5
2022-08-02T03:59:32.570Z,112.5
2022-08-02T03:59:51.081Z,112.5
2022-08-02T04:00:11.144Z,135
2022-08-02T04:00:31.325Z,135
2022-08-02T04:00:51.416Z,112.5
2022-08-02T04:01:11.433Z,112.5
2022-08-02T04:01:31.622Z,112.5
2022-08-02T04:01:51.450Z,112.5
2022-08-02T04:02:11.951Z,135
2022-08-02T04:02:31.549Z,112.5
2022-08-02T04:02:51.605Z,112.5
2022-08-02T04:03:11.685Z,112.5
2022-08-02T04:03:31.737Z,112.5
2022-08-02T04:03:51.798Z,157.5
2022-08-02T04:04:11.855Z,157.5
2022-08-02T04:04:31.930Z,180
2022-08-02T04:04:52.009Z,180
2022-08-02T04:05:12.045Z,180
2022-08-02T04:05:32.101Z,180
2022-08-02T04:06:00.852Z,157.5
2022-08-02T04:06:12.223Z,135
2022-08-02T04:06:32.382Z,135
2022-08-02T04:06:52.339Z,157.5
2022-08-02T04:07:12.427Z,157.5
2022-08-02T04:08:02.682Z,135
2022-08-02T04:08:32.937Z,112.5
2022-08-02T04:08:36.015Z,112.5
2022-08-02T04:08:37.157Z,90
2022-08-02T04:08:52.707Z,112.5
2022-08-02T04:09:12.746Z,112.5
2022-08-02T04:09:32.827Z,112.5
2022-08-02T04:09:52.863Z,112.5
2022-08-02T04:10:12.933Z,135
2022-08-02T04:10:33.007Z,157.5
2022-08-02T04:10:54.080Z,157.5
2022-08-02T04:11:13.137Z,135
2022-08-02T04:11:33.271Z,135
2022-08-02T04:11:53.249Z,135
2022-08-02T04:12:13.565Z,157.5
2022-08-02T04:12:33.375Z,180
2022-08-02T04:12:53.408Z,180
2022-08-02T04:13:13.461Z,180
2022-08-02T04:13:35.955Z,157.5
2022-08-02T04:13:56.923Z,135
2022-08-02T04:14:13.694Z,157.5
2022-08-02T04:14:36.362Z,135
2022-08-02T04:14:53.798Z,112.5
2022-08-02T04:15:13.865Z,135
2022-08-02T04:15:33.912Z,135
2022-08-02T04:15:53.998Z,112.5
2022-08-02T04:16:14.057Z,112.5
2022-08-02T04:16:34.210Z,135
2022-08-02T04:16:54.191Z,157.5
2022-08-02T04:17:15.279Z,157.5
2022-08-02T04:17:34.314Z,157.5
2022-08-02T04:17:54.382Z,157.5
2022-08-02T04:18:14.422Z,135
2022-08-02T04:18:34.512Z,135
2022-08-02T04:18:54.556Z,157.5
2022-08-02T04:19:15.088Z,135
2022-08-02T04:19:34.687Z,112.5
2022-08-02T04:19:54.742Z,112.5
2022-08-02T04:20:14.795Z,135
2022-08-02T04:20:34.863Z,135
2022-08-02T04:20:54.952Z,135
2022-08-02T04:21:15.007Z,157.5
2022-08-02T04:21:49.103Z,180
2022-08-02T04:21:55.159Z,135
2022-08-02T04:22:15.270Z,135
2022-08-02T04:22:35.364Z,112.5
2022-08-02T04:22:55.425Z,135
2022-08-02T04:23:15.490Z,157.5
2022-08-02T04:23:35.574Z,180
2022-08-02T04:23:55.641Z,180
2022-08-02T04:24:18.738Z,157.5
2022-08-02T04:24:35.810Z,112.5
2022-08-02T04:24:55.903Z,90
2022-08-02T04:25:17.418Z,112.5
2022-08-02T04:25:40.128Z,157.5
2022-08-02T04:25:56.063Z,157.5
2022-08-02T04:26:16.132Z,135
2022-08-02T04:26:36.279Z,135
2022-08-02T04:26:57.786Z,112.5
2022-08-02T04:27:49.359Z,112.5
2022-08-02T04:27:51.347Z,112.5
2022-08-02T04:28:16.846Z,112.5
2022-08-02T04:28:18.400Z,112.5
2022-08-02T04:28:36.665Z,112.5
2022-08-02T04:28:56.734Z,112.5
2022-08-02T04:29:16.814Z,112.5
2022-08-02T04:29:36.893Z,112.5